sensor_id;sensor_type;location;lat;lon;timestamp;P1;durP1;ratioP1;P2;durP2;ratioP2
69703;SDS011;56967;43.538;-5.646;2022-12-08T00:02:14;12.23;;;4.03;;
69703;SDS011;56967;43.538;-5.646;2022-12-08T00:04:40;16.50;;;4.10;;
69703;SDS011;56967;43.538;-5.646;2022-12-08T00:07:24;14.65;;;4.85;;
69703;SDS011;56967;43.538;-5.646;2022-12-08T00:10:07;11.10;;;4.22;;
69703;SDS011;56967;43.538;-5.646;2022-12-08T00:12:33;17.75;;;4.15;;
69703;SDS011;56967;43.538;-5.646;2022-12-08T00:14:59;10.63;;;4.20;;
69703;SDS011;56967;43.538;-5.646;2022-12-08T00:17:24;14.63;;;4.63;;
69703;SDS011;56967;43.538;-5.646;2022-12-08T00:19:50;7.72;;;4.28;;
69703;SDS011;56967;43.538;-5.646;2022-12-08T00:22:15;14.57;;;4.35;;
69703;SDS011;56967;43.538;-5.646;2022-12-08T00:24:41;20.98;;;4.93;;
69703;SDS011;56967;43.538;-5.646;2022-12-08T00:27:10;8.50;;;3.95;;
69703;SDS011;56967;43.538;-5.646;2022-12-08T00:29:37;9.50;;;4.38;;
69703;SDS011;56967;43.538;-5.646;2022-12-08T00:32:03;9.73;;;3.88;;
69703;SDS011;56967;43.538;-5.646;2022-12-08T00:34:29;11.00;;;4.13;;
69703;SDS011;56967;43.538;-5.646;2022-12-08T00:36:56;14.73;;;4.18;;
69703;SDS011;56967;43.538;-5.646;2022-12-08T00:39:21;10.55;;;4.40;;
69703;SDS011;56967;43.538;-5.646;2022-12-08T00:41:47;11.95;;;4.35;;
69703;SDS011;56967;43.538;-5.646;2022-12-08T00:44:31;10.27;;;4.32;;
69703;SDS011;56967;43.538;-5.646;2022-12-08T00:46:56;12.43;;;4.95;;
69703;SDS011;56967;43.538;-5.646;2022-12-08T00:49:22;10.40;;;3.90;;
69703;SDS011;56967;43.538;-5.646;2022-12-08T00:51:48;12.10;;;4.63;;
69703;SDS011;56967;43.538;-5.646;2022-12-08T00:54:14;7.95;;;4.10;;
69703;SDS011;56967;43.538;-5.646;2022-12-08T00:56:39;15.52;;;4.63;;
69703;SDS011;56967;43.538;-5.646;2022-12-08T00:59:05;8.98;;;4.43;;
69703;SDS011;56967;43.538;-5.646;2022-12-08T01:01:31;10.93;;;4.38;;
69703;SDS011;56967;43.538;-5.646;2022-12-08T01:04:01;15.18;;;4.35;;
69703;SDS011;56967;43.538;-5.646;2022-12-08T01:06:28;14.27;;;4.78;;
69703;SDS011;56967;43.538;-5.646;2022-12-08T01:08:53;18.67;;;4.47;;
69703;SDS011;56967;43.538;-5.646;2022-12-08T01:11:19;9.43;;;4.30;;
69703;SDS011;56967;43.538;-5.646;2022-12-08T01:13:44;8.02;;;4.70;;
69703;SDS011;56967;43.538;-5.646;2022-12-08T01:16:20;13.75;;;5.00;;
69703;SDS011;56967;43.538;-5.646;2022-12-08T01:18:48;8.25;;;4.25;;
69703;SDS011;56967;43.538;-5.646;2022-12-08T01:21:14;11.05;;;4.90;;
69703;SDS011;56967;43.538;-5.646;2022-12-08T01:23:40;9.10;;;4.43;;
69703;SDS011;56967;43.538;-5.646;2022-12-08T01:26:06;12.75;;;5.43;;
69703;SDS011;56967;43.538;-5.646;2022-12-08T01:28:33;13.20;;;5.15;;
69703;SDS011;56967;43.538;-5.646;2022-12-08T01:30:59;10.40;;;5.40;;
69703;SDS011;56967;43.538;-5.646;2022-12-08T01:33:25;12.60;;;5.50;;
69703;SDS011;56967;43.538;-5.646;2022-12-08T01:35:51;10.88;;;6.57;;
69703;SDS011;56967;43.538;-5.646;2022-12-08T01:38:18;10.98;;;5.90;;
69703;SDS011;56967;43.538;-5.646;2022-12-08T01:40:44;10.05;;;6.10;;
69703;SDS011;56967;43.538;-5.646;2022-12-08T01:43:19;13.38;;;7.53;;
69703;SDS011;56967;43.538;-5.646;2022-12-08T01:45:45;17.58;;;7.75;;
69703;SDS011;56967;43.538;-5.646;2022-12-08T01:48:21;13.20;;;7.95;;
69703;SDS011;56967;43.538;-5.646;2022-12-08T01:50:49;12.65;;;8.35;;
69703;SDS011;56967;43.538;-5.646;2022-12-08T01:53:28;11.70;;;8.52;;
69703;SDS011;56967;43.538;-5.646;2022-12-08T01:56:06;14.50;;;9.60;;
69703;SDS011;56967;43.538;-5.646;2022-12-08T01:58:36;13.05;;;9.15;;
69703;SDS011;56967;43.538;-5.646;2022-12-08T02:01:09;13.32;;;8.32;;
69703;SDS011;56967;43.538;-5.646;2022-12-08T02:03:37;14.25;;;8.77;;
69703;SDS011;56967;43.538;-5.646;2022-12-08T02:06:07;13.02;;;8.52;;
69703;SDS011;56967;43.538;-5.646;2022-12-08T02:08:34;14.45;;;9.45;;
69703;SDS011;56967;43.538;-5.646;2022-12-08T02:11:04;13.32;;;9.27;;
69703;SDS011;56967;43.538;-5.646;2022-12-08T02:13:30;12.82;;;8.82;;
69703;SDS011;56967;43.538;-5.646;2022-12-08T02:16:04;16.70;;;9.48;;
69703;SDS011;56967;43.538;-5.646;2022-12-08T02:27:17;16.38;;;9.60;;
69703;SDS011;56967;43.538;-5.646;2022-12-08T02:30:04;14.85;;;9.52;;
69703;SDS011;56967;43.538;-5.646;2022-12-08T02:38:26;14.30;;;9.40;;
69703;SDS011;56967;43.538;-5.646;2022-12-08T02:43:43;15.00;;;9.52;;
69703;SDS011;56967;43.538;-5.646;2022-12-08T02:46:30;13.73;;;9.57;;
69703;SDS011;56967;43.538;-5.646;2022-12-08T02:48:59;13.30;;;8.85;;
69703;SDS011;56967;43.538;-5.646;2022-12-08T02:51:26;11.60;;;8.98;;
69703;SDS011;56967;43.538;-5.646;2022-12-08T02:53:52;11.50;;;9.25;;
69703;SDS011;56967;43.538;-5.646;2022-12-08T03:01:51;12.95;;;9.32;;
69703;SDS011;56967;43.538;-5.646;2022-12-08T03:04:44;10.85;;;8.27;;
69703;SDS011;56967;43.538;-5.646;2022-12-08T03:07:20;10.40;;;8.32;;
69703;SDS011;56967;43.538;-5.646;2022-12-08T03:10:08;10.70;;;8.02;;
69703;SDS011;56967;43.538;-5.646;2022-12-08T03:12:41;15.02;;;8.00;;
69703;SDS011;56967;43.538;-5.646;2022-12-08T03:15:10;12.85;;;7.78;;
69703;SDS011;56967;43.538;-5.646;2022-12-08T03:17:40;12.75;;;8.75;;
69703;SDS011;56967;43.538;-5.646;2022-12-08T03:20:10;10.18;;;7.90;;
69703;SDS011;56967;43.538;-5.646;2022-12-08T03:22:39;10.57;;;7.97;;
69703;SDS011;56967;43.538;-5.646;2022-12-08T03:25:07;12.73;;;8.68;;
69703;SDS011;56967;43.538;-5.646;2022-12-08T03:27:37;12.43;;;8.40;;
69703;SDS011;56967;43.538;-5.646;2022-12-08T03:30:02;12.55;;;8.25;;
69703;SDS011;56967;43.538;-5.646;2022-12-08T03:35:16;12.40;;;7.68;;
69703;SDS011;56967;43.538;-5.646;2022-12-08T03:37:49;11.00;;;8.45;;
69703;SDS011;56967;43.538;-5.646;2022-12-08T03:40:16;11.77;;;8.07;;
69703;SDS011;56967;43.538;-5.646;2022-12-08T03:42:43;11.50;;;7.90;;
69703;SDS011;56967;43.538;-5.646;2022-12-08T03:45:08;10.38;;;7.90;;
69703;SDS011;56967;43.538;-5.646;2022-12-08T03:47:34;11.13;;;8.07;;
69703;SDS011;56967;43.538;-5.646;2022-12-08T03:50:00;15.35;;;7.80;;
69703;SDS011;56967;43.538;-5.646;2022-12-08T03:52:26;9.80;;;7.20;;
69703;SDS011;56967;43.538;-5.646;2022-12-08T03:54:51;11.20;;;7.72;;
69703;SDS011;56967;43.538;-5.646;2022-12-08T03:57:17;11.85;;;7.43;;
69703;SDS011;56967;43.538;-5.646;2022-12-08T03:59:43;10.45;;;8.00;;
69703;SDS011;56967;43.538;-5.646;2022-12-08T04:02:08;9.88;;;6.90;;
69703;SDS011;56967;43.538;-5.646;2022-12-08T04:04:34;11.63;;;7.50;;
69703;SDS011;56967;43.538;-5.646;2022-12-08T04:06:59;12.02;;;7.18;;
69703;SDS011;56967;43.538;-5.646;2022-12-08T04:09:25;12.25;;;7.70;;
69703;SDS011;56967;43.538;-5.646;2022-12-08T04:11:50;10.75;;;7.82;;
69703;SDS011;56967;43.538;-5.646;2022-12-08T04:14:16;10.00;;;7.43;;
69703;SDS011;56967;43.538;-5.646;2022-12-08T04:16:41;10.20;;;7.53;;
69703;SDS011;56967;43.538;-5.646;2022-12-08T04:19:07;11.27;;;7.22;;
69703;SDS011;56967;43.538;-5.646;2022-12-08T04:21:33;13.23;;;7.47;;
69703;SDS011;56967;43.538;-5.646;2022-12-08T04:23:58;11.40;;;7.38;;
69703;SDS011;56967;43.538;-5.646;2022-12-08T04:26:24;12.50;;;6.82;;
69703;SDS011;56967;43.538;-5.646;2022-12-08T04:28:49;9.80;;;6.50;;
69703;SDS011;56967;43.538;-5.646;2022-12-08T04:31:15;11.98;;;6.60;;
69703;SDS011;56967;43.538;-5.646;2022-12-08T04:33:41;16.17;;;7.97;;
69703;SDS011;56967;43.538;-5.646;2022-12-08T04:36:06;11.93;;;7.15;;
69703;SDS011;56967;43.538;-5.646;2022-12-08T04:38:33;10.35;;;6.90;;
69703;SDS011;56967;43.538;-5.646;2022-12-08T04:40:58;12.05;;;6.82;;
69703;SDS011;56967;43.538;-5.646;2022-12-08T04:43:24;12.48;;;6.63;;
69703;SDS011;56967;43.538;-5.646;2022-12-08T04:45:50;13.60;;;7.03;;
69703;SDS011;56967;43.538;-5.646;2022-12-08T04:48:15;9.68;;;6.45;;
69703;SDS011;56967;43.538;-5.646;2022-12-08T04:50:42;9.50;;;6.43;;
69703;SDS011;56967;43.538;-5.646;2022-12-08T04:53:09;9.60;;;6.40;;
69703;SDS011;56967;43.538;-5.646;2022-12-08T04:55:38;10.90;;;6.40;;
69703;SDS011;56967;43.538;-5.646;2022-12-08T04:58:06;11.15;;;6.50;;
69703;SDS011;56967;43.538;-5.646;2022-12-08T05:00:31;11.27;;;6.53;;
69703;SDS011;56967;43.538;-5.646;2022-12-08T05:02:57;11.85;;;6.55;;
69703;SDS011;56967;43.538;-5.646;2022-12-08T05:05:23;8.57;;;6.30;;
69703;SDS011;56967;43.538;-5.646;2022-12-08T05:07:48;10.98;;;6.53;;
69703;SDS011;56967;43.538;-5.646;2022-12-08T05:10:14;9.93;;;6.38;;
69703;SDS011;56967;43.538;-5.646;2022-12-08T05:12:39;11.27;;;6.57;;
69703;SDS011;56967;43.538;-5.646;2022-12-08T05:15:05;14.35;;;7.47;;
69703;SDS011;56967;43.538;-5.646;2022-12-08T05:17:31;11.20;;;7.55;;
69703;SDS011;56967;43.538;-5.646;2022-12-08T05:19:57;11.50;;;6.57;;
69703;SDS011;56967;43.538;-5.646;2022-12-08T05:22:22;11.98;;;7.50;;
69703;SDS011;56967;43.538;-5.646;2022-12-08T05:24:48;8.93;;;6.05;;
69703;SDS011;56967;43.538;-5.646;2022-12-08T05:27:13;12.73;;;6.40;;
69703;SDS011;56967;43.538;-5.646;2022-12-08T05:29:39;9.75;;;5.95;;
69703;SDS011;56967;43.538;-5.646;2022-12-08T05:32:05;10.77;;;6.65;;
69703;SDS011;56967;43.538;-5.646;2022-12-08T05:34:30;9.65;;;6.47;;
69703;SDS011;56967;43.538;-5.646;2022-12-08T05:36:56;9.13;;;6.60;;
69703;SDS011;56967;43.538;-5.646;2022-12-08T05:39:22;11.32;;;6.72;;
69703;SDS011;56967;43.538;-5.646;2022-12-08T05:41:47;10.65;;;7.38;;
69703;SDS011;56967;43.538;-5.646;2022-12-08T05:44:13;10.18;;;7.18;;
69703;SDS011;56967;43.538;-5.646;2022-12-08T05:46:38;11.40;;;7.35;;
69703;SDS011;56967;43.538;-5.646;2022-12-08T05:49:04;10.35;;;7.25;;
69703;SDS011;56967;43.538;-5.646;2022-12-08T05:51:30;9.23;;;7.40;;
69703;SDS011;56967;43.538;-5.646;2022-12-08T05:53:55;12.20;;;7.60;;
69703;SDS011;56967;43.538;-5.646;2022-12-08T05:56:22;11.70;;;7.30;;
69703;SDS011;56967;43.538;-5.646;2022-12-08T05:58:48;10.10;;;7.50;;
69703;SDS011;56967;43.538;-5.646;2022-12-08T06:01:24;11.30;;;7.85;;
69703;SDS011;56967;43.538;-5.646;2022-12-08T06:03:52;15.55;;;8.00;;
69703;SDS011;56967;43.538;-5.646;2022-12-08T06:06:18;13.20;;;7.38;;
69703;SDS011;56967;43.538;-5.646;2022-12-08T06:08:44;10.20;;;7.55;;
69703;SDS011;56967;43.538;-5.646;2022-12-08T06:11:15;9.30;;;7.72;;
69703;SDS011;56967;43.538;-5.646;2022-12-08T06:13:46;9.32;;;7.32;;
69703;SDS011;56967;43.538;-5.646;2022-12-08T06:16:12;10.38;;;7.57;;
69703;SDS011;56967;43.538;-5.646;2022-12-08T06:18:37;11.43;;;7.75;;
69703;SDS011;56967;43.538;-5.646;2022-12-08T06:21:04;12.57;;;8.57;;
69703;SDS011;56967;43.538;-5.646;2022-12-08T06:23:31;12.95;;;7.80;;
69703;SDS011;56967;43.538;-5.646;2022-12-08T06:26:03;11.88;;;9.50;;
69703;SDS011;56967;43.538;-5.646;2022-12-08T06:28:30;13.75;;;8.50;;
69703;SDS011;56967;43.538;-5.646;2022-12-08T06:30:56;12.55;;;9.38;;
69703;SDS011;56967;43.538;-5.646;2022-12-08T06:33:23;13.00;;;9.38;;
69703;SDS011;56967;43.538;-5.646;2022-12-08T06:35:50;12.15;;;8.20;;
69703;SDS011;56967;43.538;-5.646;2022-12-08T06:38:15;13.32;;;9.55;;
69703;SDS011;56967;43.538;-5.646;2022-12-08T06:40:41;12.25;;;8.57;;
69703;SDS011;56967;43.538;-5.646;2022-12-08T06:43:06;15.02;;;9.50;;
69703;SDS011;56967;43.538;-5.646;2022-12-08T06:45:32;14.85;;;9.45;;
69703;SDS011;56967;43.538;-5.646;2022-12-08T06:47:57;13.73;;;9.30;;
69703;SDS011;56967;43.538;-5.646;2022-12-08T06:50:26;16.15;;;10.25;;
69703;SDS011;56967;43.538;-5.646;2022-12-08T06:52:51;14.77;;;10.20;;
69703;SDS011;56967;43.538;-5.646;2022-12-08T06:55:17;14.20;;;10.07;;
69703;SDS011;56967;43.538;-5.646;2022-12-08T06:57:42;14.82;;;10.30;;
69703;SDS011;56967;43.538;-5.646;2022-12-08T07:00:08;13.75;;;10.38;;
69703;SDS011;56967;43.538;-5.646;2022-12-08T07:02:34;16.65;;;10.90;;
69703;SDS011;56967;43.538;-5.646;2022-12-08T07:04:59;16.80;;;9.40;;
69703;SDS011;56967;43.538;-5.646;2022-12-08T07:07:25;17.02;;;11.13;;
69703;SDS011;56967;43.538;-5.646;2022-12-08T07:09:50;20.42;;;11.25;;
69703;SDS011;56967;43.538;-5.646;2022-12-08T07:12:16;16.73;;;11.00;;
69703;SDS011;56967;43.538;-5.646;2022-12-08T07:14:42;15.35;;;10.23;;
69703;SDS011;56967;43.538;-5.646;2022-12-08T07:17:07;13.57;;;10.65;;
69703;SDS011;56967;43.538;-5.646;2022-12-08T07:19:33;17.23;;;11.43;;
69703;SDS011;56967;43.538;-5.646;2022-12-08T07:21:58;14.88;;;10.93;;
69703;SDS011;56967;43.538;-5.646;2022-12-08T07:24:24;18.15;;;11.32;;
69703;SDS011;56967;43.538;-5.646;2022-12-08T07:26:49;16.67;;;10.80;;
69703;SDS011;56967;43.538;-5.646;2022-12-08T07:29:15;15.95;;;10.93;;
69703;SDS011;56967;43.538;-5.646;2022-12-08T07:31:40;18.67;;;11.23;;
69703;SDS011;56967;43.538;-5.646;2022-12-08T07:34:06;17.48;;;11.77;;
69703;SDS011;56967;43.538;-5.646;2022-12-08T07:36:32;16.95;;;11.85;;
69703;SDS011;56967;43.538;-5.646;2022-12-08T07:38:57;16.92;;;10.73;;
69703;SDS011;56967;43.538;-5.646;2022-12-08T07:41:23;18.08;;;11.32;;
69703;SDS011;56967;43.538;-5.646;2022-12-08T07:43:50;17.85;;;11.55;;
69703;SDS011;56967;43.538;-5.646;2022-12-08T07:46:18;15.32;;;11.32;;
69703;SDS011;56967;43.538;-5.646;2022-12-08T07:48:45;16.50;;;10.75;;
69703;SDS011;56967;43.538;-5.646;2022-12-08T07:51:12;19.40;;;10.30;;
69703;SDS011;56967;43.538;-5.646;2022-12-08T07:53:39;14.10;;;9.48;;
69703;SDS011;56967;43.538;-5.646;2022-12-08T07:56:06;13.68;;;9.38;;
69703;SDS011;56967;43.538;-5.646;2022-12-08T07:58:32;13.00;;;8.77;;
69703;SDS011;56967;43.538;-5.646;2022-12-08T08:00:58;14.57;;;10.30;;
69703;SDS011;56967;43.538;-5.646;2022-12-08T08:03:24;16.83;;;10.85;;
69703;SDS011;56967;43.538;-5.646;2022-12-08T08:05:49;16.27;;;9.98;;
69703;SDS011;56967;43.538;-5.646;2022-12-08T08:08:15;16.85;;;10.38;;
69703;SDS011;56967;43.538;-5.646;2022-12-08T08:10:42;19.80;;;11.27;;
69703;SDS011;56967;43.538;-5.646;2022-12-08T08:13:08;15.95;;;10.60;;
69703;SDS011;56967;43.538;-5.646;2022-12-08T08:15:34;15.95;;;11.07;;
69703;SDS011;56967;43.538;-5.646;2022-12-08T08:17:59;13.90;;;10.48;;
69703;SDS011;56967;43.538;-5.646;2022-12-08T08:20:25;16.17;;;10.65;;
69703;SDS011;56967;43.538;-5.646;2022-12-08T08:22:51;16.17;;;11.10;;
69703;SDS011;56967;43.538;-5.646;2022-12-08T08:25:17;17.08;;;11.43;;
69703;SDS011;56967;43.538;-5.646;2022-12-08T08:27:44;14.98;;;11.00;;
69703;SDS011;56967;43.538;-5.646;2022-12-08T08:30:11;15.23;;;11.32;;
69703;SDS011;56967;43.538;-5.646;2022-12-08T08:32:37;15.35;;;10.88;;
69703;SDS011;56967;43.538;-5.646;2022-12-08T08:35:04;16.08;;;10.40;;
69703;SDS011;56967;43.538;-5.646;2022-12-08T08:37:30;16.98;;;10.70;;
69703;SDS011;56967;43.538;-5.646;2022-12-08T08:39:55;15.35;;;10.60;;
69703;SDS011;56967;43.538;-5.646;2022-12-08T08:42:21;16.63;;;10.38;;
69703;SDS011;56967;43.538;-5.646;2022-12-08T08:44:47;17.80;;;11.20;;
69703;SDS011;56967;43.538;-5.646;2022-12-08T08:47:13;16.50;;;11.07;;
69703;SDS011;56967;43.538;-5.646;2022-12-08T08:49:38;16.60;;;10.88;;
69703;SDS011;56967;43.538;-5.646;2022-12-08T08:52:04;15.43;;;10.57;;
69703;SDS011;56967;43.538;-5.646;2022-12-08T08:54:32;15.10;;;10.75;;
69703;SDS011;56967;43.538;-5.646;2022-12-08T08:57:01;15.30;;;10.40;;
69703;SDS011;56967;43.538;-5.646;2022-12-08T08:59:27;16.38;;;10.68;;
69703;SDS011;56967;43.538;-5.646;2022-12-08T09:01:53;17.48;;;10.75;;
69703;SDS011;56967;43.538;-5.646;2022-12-08T09:04:20;15.45;;;10.48;;
69703;SDS011;56967;43.538;-5.646;2022-12-08T09:06:49;12.93;;;9.35;;
69703;SDS011;56967;43.538;-5.646;2022-12-08T09:09:15;17.17;;;10.98;;
69703;SDS011;56967;43.538;-5.646;2022-12-08T09:11:41;14.93;;;9.77;;
69703;SDS011;56967;43.538;-5.646;2022-12-08T09:14:09;14.15;;;9.82;;
69703;SDS011;56967;43.538;-5.646;2022-12-08T09:16:38;15.77;;;9.88;;
69703;SDS011;56967;43.538;-5.646;2022-12-08T09:19:10;13.68;;;9.85;;
69703;SDS011;56967;43.538;-5.646;2022-12-08T09:21:35;15.75;;;10.00;;
69703;SDS011;56967;43.538;-5.646;2022-12-08T09:24:01;15.88;;;10.52;;
69703;SDS011;56967;43.538;-5.646;2022-12-08T09:26:27;15.07;;;9.88;;
69703;SDS011;56967;43.538;-5.646;2022-12-08T09:28:53;13.75;;;10.05;;
69703;SDS011;56967;43.538;-5.646;2022-12-08T09:31:20;18.08;;;10.05;;
69703;SDS011;56967;43.538;-5.646;2022-12-08T09:33:47;16.63;;;10.18;;
69703;SDS011;56967;43.538;-5.646;2022-12-08T09:36:16;16.92;;;10.77;;
69703;SDS011;56967;43.538;-5.646;2022-12-08T09:38:42;17.60;;;10.25;;
69703;SDS011;56967;43.538;-5.646;2022-12-08T09:41:15;17.67;;;10.60;;
69703;SDS011;56967;43.538;-5.646;2022-12-08T09:46:18;18.02;;;10.25;;
69703;SDS011;56967;43.538;-5.646;2022-12-08T09:48:56;15.50;;;10.35;;
69703;SDS011;56967;43.538;-5.646;2022-12-08T09:51:23;15.45;;;8.82;;
69703;SDS011;56967;43.538;-5.646;2022-12-08T09:53:53;13.98;;;8.82;;
69703;SDS011;56967;43.538;-5.646;2022-12-08T09:56:23;15.70;;;9.57;;
69703;SDS011;56967;43.538;-5.646;2022-12-08T09:58:59;13.60;;;8.98;;
69703;SDS011;56967;43.538;-5.646;2022-12-08T10:01:31;13.82;;;8.75;;
69703;SDS011;56967;43.538;-5.646;2022-12-08T10:03:58;17.33;;;9.77;;
69703;SDS011;56967;43.538;-5.646;2022-12-08T10:06:32;16.13;;;9.80;;
69703;SDS011;56967;43.538;-5.646;2022-12-08T10:14:42;12.73;;;8.93;;
69703;SDS011;56967;43.538;-5.646;2022-12-08T10:17:15;18.13;;;8.80;;
69703;SDS011;56967;43.538;-5.646;2022-12-08T10:19:44;13.77;;;8.52;;
69703;SDS011;56967;43.538;-5.646;2022-12-08T10:22:14;16.65;;;9.10;;
69703;SDS011;56967;43.538;-5.646;2022-12-08T10:24:59;12.18;;;8.13;;
69703;SDS011;56967;43.538;-5.646;2022-12-08T10:27:32;13.77;;;8.50;;
69703;SDS011;56967;43.538;-5.646;2022-12-08T10:30:00;15.05;;;7.68;;
69703;SDS011;56967;43.538;-5.646;2022-12-08T10:32:27;11.80;;;8.30;;
69703;SDS011;56967;43.538;-5.646;2022-12-08T10:35:08;13.65;;;8.10;;
69703;SDS011;56967;43.538;-5.646;2022-12-08T10:37:38;13.05;;;7.63;;
69703;SDS011;56967;43.538;-5.646;2022-12-08T10:42:42;12.00;;;7.80;;
69703;SDS011;56967;43.538;-5.646;2022-12-08T10:45:36;12.40;;;7.63;;
69703;SDS011;56967;43.538;-5.646;2022-12-08T10:48:03;12.10;;;8.13;;
69703;SDS011;56967;43.538;-5.646;2022-12-08T10:53:18;13.98;;;7.43;;
69703;SDS011;56967;43.538;-5.646;2022-12-08T10:55:48;10.52;;;7.82;;
69703;SDS011;56967;43.538;-5.646;2022-12-08T10:58:28;14.30;;;7.80;;
69703;SDS011;56967;43.538;-5.646;2022-12-08T11:03:53;12.73;;;7.57;;
69703;SDS011;56967;43.538;-5.646;2022-12-08T11:06:29;12.70;;;7.30;;
69703;SDS011;56967;43.538;-5.646;2022-12-08T11:09:06;12.30;;;6.78;;
69703;SDS011;56967;43.538;-5.646;2022-12-08T11:11:57;10.90;;;6.53;;
69703;SDS011;56967;43.538;-5.646;2022-12-08T11:16:55;15.50;;;7.43;;
69703;SDS011;56967;43.538;-5.646;2022-12-08T11:19:29;12.45;;;7.47;;
69703;SDS011;56967;43.538;-5.646;2022-12-08T11:21:54;11.70;;;7.38;;
69703;SDS011;56967;43.538;-5.646;2022-12-08T11:24:21;14.43;;;7.32;;
69703;SDS011;56967;43.538;-5.646;2022-12-08T11:27:03;11.93;;;6.97;;
69703;SDS011;56967;43.538;-5.646;2022-12-08T11:32:11;11.43;;;6.38;;
69703;SDS011;56967;43.538;-5.646;2022-12-08T11:34:40;10.15;;;6.30;;
69703;SDS011;56967;43.538;-5.646;2022-12-08T11:37:43;9.40;;;6.47;;
69703;SDS011;56967;43.538;-5.646;2022-12-08T11:40:06;12.68;;;6.50;;
69703;SDS011;56967;43.538;-5.646;2022-12-08T11:45:43;10.60;;;6.55;;
69703;SDS011;56967;43.538;-5.646;2022-12-08T11:53:14;11.65;;;5.88;;
69703;SDS011;56967;43.538;-5.646;2022-12-08T11:55:50;11.27;;;6.35;;
69703;SDS011;56967;43.538;-5.646;2022-12-08T11:58:23;11.23;;;6.35;;
69703;SDS011;56967;43.538;-5.646;2022-12-08T12:00:53;10.35;;;6.28;;
69703;SDS011;56967;43.538;-5.646;2022-12-08T12:03:31;8.75;;;6.07;;
69703;SDS011;56967;43.538;-5.646;2022-12-08T12:09:09;8.68;;;6.50;;
69703;SDS011;56967;43.538;-5.646;2022-12-08T12:20:52;8.68;;;5.88;;
69703;SDS011;56967;43.538;-5.646;2022-12-08T12:25:57;9.82;;;5.63;;
69703;SDS011;56967;43.538;-5.646;2022-12-08T12:28:26;7.78;;;5.07;;
69703;SDS011;56967;43.538;-5.646;2022-12-08T12:31:03;9.93;;;5.35;;
69703;SDS011;56967;43.538;-5.646;2022-12-08T12:33:32;10.57;;;5.63;;
69703;SDS011;56967;43.538;-5.646;2022-12-08T12:36:03;10.82;;;5.40;;
69703;SDS011;56967;43.538;-5.646;2022-12-08T12:38:32;11.10;;;5.43;;
69703;SDS011;56967;43.538;-5.646;2022-12-08T12:41:41;7.55;;;5.18;;
69703;SDS011;56967;43.538;-5.646;2022-12-08T12:46:40;8.57;;;5.47;;
69703;SDS011;56967;43.538;-5.646;2022-12-08T12:54:43;12.00;;;5.40;;
69703;SDS011;56967;43.538;-5.646;2022-12-08T12:57:36;10.77;;;5.50;;
69703;SDS011;56967;43.538;-5.646;2022-12-08T13:00:24;10.80;;;5.30;;
69703;SDS011;56967;43.538;-5.646;2022-12-08T13:02:52;10.80;;;4.95;;
69703;SDS011;56967;43.538;-5.646;2022-12-08T13:05:23;11.80;;;5.25;;
69703;SDS011;56967;43.538;-5.646;2022-12-08T13:07:58;11.60;;;5.35;;
69703;SDS011;56967;43.538;-5.646;2022-12-08T13:10:36;11.20;;;4.50;;
69703;SDS011;56967;43.538;-5.646;2022-12-08T13:15:37;8.00;;;4.68;;
69703;SDS011;56967;43.538;-5.646;2022-12-08T13:18:19;10.50;;;4.38;;
69703;SDS011;56967;43.538;-5.646;2022-12-08T13:20:47;10.18;;;4.80;;
69703;SDS011;56967;43.538;-5.646;2022-12-08T13:34:27;8.40;;;4.28;;
69703;SDS011;56967;43.538;-5.646;2022-12-08T13:47:38;11.55;;;5.20;;
69703;SDS011;56967;43.538;-5.646;2022-12-08T13:50:13;9.52;;;4.80;;
69703;SDS011;56967;43.538;-5.646;2022-12-08T13:52:59;8.98;;;4.60;;
69703;SDS011;56967;43.538;-5.646;2022-12-08T13:55:29;8.32;;;4.70;;
69703;SDS011;56967;43.538;-5.646;2022-12-08T13:58:01;8.27;;;4.47;;
69703;SDS011;56967;43.538;-5.646;2022-12-08T14:00:26;7.57;;;4.72;;
69703;SDS011;56967;43.538;-5.646;2022-12-08T14:02:55;6.03;;;4.53;;
69703;SDS011;56967;43.538;-5.646;2022-12-08T14:05:22;8.52;;;4.68;;
69703;SDS011;56967;43.538;-5.646;2022-12-08T14:07:51;10.82;;;4.18;;
69703;SDS011;56967;43.538;-5.646;2022-12-08T14:10:25;10.10;;;4.18;;
69703;SDS011;56967;43.538;-5.646;2022-12-08T14:13:03;11.27;;;4.20;;
69703;SDS011;56967;43.538;-5.646;2022-12-08T14:15:31;9.63;;;4.10;;
69703;SDS011;56967;43.538;-5.646;2022-12-08T14:17:57;7.30;;;3.83;;
69703;SDS011;56967;43.538;-5.646;2022-12-08T14:20:26;11.98;;;4.55;;
69703;SDS011;56967;43.538;-5.646;2022-12-08T14:22:54;11.07;;;4.20;;
69703;SDS011;56967;43.538;-5.646;2022-12-08T14:25:21;10.20;;;4.93;;
69703;SDS011;56967;43.538;-5.646;2022-12-08T14:27:48;13.80;;;4.40;;
69703;SDS011;56967;43.538;-5.646;2022-12-08T14:30:17;9.93;;;4.75;;
69703;SDS011;56967;43.538;-5.646;2022-12-08T14:32:49;12.68;;;4.78;;
69703;SDS011;56967;43.538;-5.646;2022-12-08T14:37:46;13.00;;;4.70;;
69703;SDS011;56967;43.538;-5.646;2022-12-08T14:42:43;10.15;;;4.38;;
69703;SDS011;56967;43.538;-5.646;2022-12-08T14:45:12;9.27;;;4.30;;
69703;SDS011;56967;43.538;-5.646;2022-12-08T14:47:40;14.23;;;4.63;;
69703;SDS011;56967;43.538;-5.646;2022-12-08T14:53:01;9.48;;;4.18;;
69703;SDS011;56967;43.538;-5.646;2022-12-08T14:55:36;7.63;;;4.22;;
69703;SDS011;56967;43.538;-5.646;2022-12-08T14:58:02;11.50;;;4.32;;
69703;SDS011;56967;43.538;-5.646;2022-12-08T15:00:28;10.88;;;4.72;;
69703;SDS011;56967;43.538;-5.646;2022-12-08T15:02:54;9.75;;;4.30;;
69703;SDS011;56967;43.538;-5.646;2022-12-08T15:05:21;7.70;;;4.10;;
69703;SDS011;56967;43.538;-5.646;2022-12-08T15:07:54;11.07;;;4.03;;
69703;SDS011;56967;43.538;-5.646;2022-12-08T15:10:25;10.68;;;4.28;;
69703;SDS011;56967;43.538;-5.646;2022-12-08T15:12:57;9.40;;;4.57;;
69703;SDS011;56967;43.538;-5.646;2022-12-08T15:15:48;10.35;;;4.60;;
69703;SDS011;56967;43.538;-5.646;2022-12-08T15:21:01;9.10;;;4.15;;
69703;SDS011;56967;43.538;-5.646;2022-12-08T15:23:48;9.23;;;3.55;;
69703;SDS011;56967;43.538;-5.646;2022-12-08T15:26:34;9.02;;;3.88;;
69703;SDS011;56967;43.538;-5.646;2022-12-08T15:29:12;11.85;;;4.13;;
69703;SDS011;56967;43.538;-5.646;2022-12-08T15:31:49;9.05;;;3.83;;
69703;SDS011;56967;43.538;-5.646;2022-12-08T15:34:16;8.80;;;3.92;;
69703;SDS011;56967;43.538;-5.646;2022-12-08T15:36:43;7.72;;;3.58;;
69703;SDS011;56967;43.538;-5.646;2022-12-08T15:39:18;14.68;;;5.18;;
69703;SDS011;56967;43.538;-5.646;2022-12-08T15:41:44;10.63;;;4.28;;
69703;SDS011;56967;43.538;-5.646;2022-12-08T15:44:10;8.50;;;4.00;;
69703;SDS011;56967;43.538;-5.646;2022-12-08T15:46:35;5.80;;;3.72;;
69703;SDS011;56967;43.538;-5.646;2022-12-08T15:49:01;8.55;;;4.05;;
69703;SDS011;56967;43.538;-5.646;2022-12-08T15:51:27;10.05;;;4.10;;
69703;SDS011;56967;43.538;-5.646;2022-12-08T15:53:54;8.63;;;4.18;;
69703;SDS011;56967;43.538;-5.646;2022-12-08T15:56:20;7.05;;;4.05;;
69703;SDS011;56967;43.538;-5.646;2022-12-08T15:58:46;6.20;;;4.18;;
69703;SDS011;56967;43.538;-5.646;2022-12-08T16:01:11;9.95;;;4.38;;
69703;SDS011;56967;43.538;-5.646;2022-12-08T16:03:38;8.55;;;4.32;;
69703;SDS011;56967;43.538;-5.646;2022-12-08T16:06:03;9.68;;;4.32;;
69703;SDS011;56967;43.538;-5.646;2022-12-08T16:08:30;7.22;;;4.50;;
69703;SDS011;56967;43.538;-5.646;2022-12-08T16:10:55;8.20;;;4.55;;
69703;SDS011;56967;43.538;-5.646;2022-12-08T16:13:41;10.05;;;4.93;;
69703;SDS011;56967;43.538;-5.646;2022-12-08T16:16:16;9.27;;;4.38;;
69703;SDS011;56967;43.538;-5.646;2022-12-08T16:18:46;10.75;;;4.53;;
69703;SDS011;56967;43.538;-5.646;2022-12-08T16:21:12;9.82;;;4.90;;
69703;SDS011;56967;43.538;-5.646;2022-12-08T16:23:38;7.25;;;4.65;;
69703;SDS011;56967;43.538;-5.646;2022-12-08T16:26:03;10.45;;;5.05;;